sensor_id;sensor_type;location;lat;lon;timestamp;pressure;altitude;pressure_sealevel;temperature;humidity
11345;BME280;5727;42.600;23.028;2023-02-28T00:01:09;94070.91;;;6.44;100.00
11345;BME280;5727;42.600;23.028;2023-02-28T00:03:35;94068.97;;;6.36;100.00
11345;BME280;5727;42.600;23.028;2023-02-28T00:06:03;94077.06;;;6.34;100.00
11345;BME280;5727;42.600;23.028;2023-02-28T00:08:30;94076.50;;;6.24;100.00
11345;BME280;5727;42.600;23.028;2023-02-28T00:11:02;94079.78;;;6.16;100.00
11345;BME280;5727;42.600;23.028;2023-02-28T00:13:29;94095.94;;;6.13;100.00
11345;BME280;5727;42.600;23.028;2023-02-28T00:16:00;94091.31;;;6.10;100.00
11345;BME280;5727;42.600;23.028;2023-02-28T00:18:26;94086.13;;;6.10;100.00
11345;BME280;5727;42.600;23.028;2023-02-28T00:20:53;94096.16;;;6.03;100.00
11345;BME280;5727;42.600;23.028;2023-02-28T00:23:20;94092.09;;;5.97;100.00
11345;BME280;5727;42.600;23.028;2023-02-28T00:25:47;94087.47;;;6.07;100.00
11345;BME280;5727;42.600;23.028;2023-02-28T00:28:16;94087.66;;;5.97;100.00
11345;BME280;5727;42.600;23.028;2023-02-28T00:30:42;94087.56;;;6.02;100.00
11345;BME280;5727;42.600;23.028;2023-02-28T00:33:09;94087.69;;;6.11;100.00
11345;BME280;5727;42.600;23.028;2023-02-28T00:35:36;94078.19;;;6.01;100.00
11345;BME280;5727;42.600;23.028;2023-02-28T00:38:03;94083.50;;;5.96;100.00
11345;BME280;5727;42.600;23.028;2023-02-28T00:40:30;94079.47;;;6.04;100.00
11345;BME280;5727;42.600;23.028;2023-02-28T00:42:57;94078.00;;;5.98;100.00
11345;BME280;5727;42.600;23.028;2023-02-28T00:45:25;94084.78;;;5.99;100.00
11345;BME280;5727;42.600;23.028;2023-02-28T00:47:52;94074.94;;;6.09;100.00
11345;BME280;5727;42.600;23.028;2023-02-28T00:50:19;94074.47;;;6.21;100.00
11345;BME280;5727;42.600;23.028;2023-02-28T00:52:47;94078.22;;;6.28;100.00
11345;BME280;5727;42.600;23.028;2023-02-28T00:55:14;94089.03;;;6.35;100.00
11345;BME280;5727;42.600;23.028;2023-02-28T00:57:41;94088.16;;;6.40;100.00
11345;BME280;5727;42.600;23.028;2023-02-28T01:00:08;94087.09;;;6.27;100.00
11345;BME280;5727;42.600;23.028;2023-02-28T01:02:37;94093.84;;;6.28;100.00
11345;BME280;5727;42.600;23.028;2023-02-28T01:05:05;94082.09;;;6.31;100.00
11345;BME280;5727;42.600;23.028;2023-02-28T01:07:31;94091.34;;;6.37;100.00
11345;BME280;5727;42.600;23.028;2023-02-28T01:09:58;94087.19;;;6.49;100.00
11345;BME280;5727;42.600;23.028;2023-02-28T01:12:25;94090.09;;;6.34;100.00
11345;BME280;5727;42.600;23.028;2023-02-28T01:14:52;94082.88;;;6.18;100.00
11345;BME280;5727;42.600;23.028;2023-02-28T01:17:18;94075.91;;;6.00;100.00
11345;BME280;5727;42.600;23.028;2023-02-28T01:19:46;94078.41;;;6.05;100.00
11345;BME280;5727;42.600;23.028;2023-02-28T01:22:13;94086.03;;;6.15;100.00
11345;BME280;5727;42.600;23.028;2023-02-28T01:24:40;94080.56;;;6.30;100.00
11345;BME280;5727;42.600;23.028;2023-02-28T01:27:06;94082.94;;;6.40;100.00
11345;BME280;5727;42.600;23.028;2023-02-28T01:29:33;94083.66;;;6.32;100.00
11345;BME280;5727;42.600;23.028;2023-02-28T01:32:00;94073.25;;;6.32;100.00
11345;BME280;5727;42.600;23.028;2023-02-28T01:34:27;94077.19;;;6.29;100.00
11345;BME280;5727;42.600;23.028;2023-02-28T01:36:55;94081.97;;;6.36;100.00
11345;BME280;5727;42.600;23.028;2023-02-28T01:39:24;94080.25;;;6.31;100.00
11345;BME280;5727;42.600;23.028;2023-02-28T01:41:50;94087.59;;;6.43;100.00
11345;BME280;5727;42.600;23.028;2023-02-28T01:44:55;94081.72;;;6.51;100.00
11345;BME280;5727;42.600;23.028;2023-02-28T01:47:24;94078.50;;;6.54;100.00
11345;BME280;5727;42.600;23.028;2023-02-28T01:49:52;94081.72;;;6.51;100.00
11345;BME280;5727;42.600;23.028;2023-02-28T01:52:21;94073.41;;;6.49;100.00
11345;BME280;5727;42.600;23.028;2023-02-28T01:54:52;94084.31;;;6.51;100.00
11345;BME280;5727;42.600;23.028;2023-02-28T01:57:22;94081.50;;;6.34;100.00
11345;BME280;5727;42.600;23.028;2023-02-28T01:59:53;94089.91;;;6.31;100.00
11345;BME280;5727;42.600;23.028;2023-02-28T02:02:22;94089.22;;;6.25;100.00
11345;BME280;5727;42.600;23.028;2023-02-28T02:04:53;94086.72;;;6.20;100.00
11345;BME280;5727;42.600;23.028;2023-02-28T02:07:23;94079.59;;;6.26;100.00
11345;BME280;5727;42.600;23.028;2023-02-28T02:09:59;94088.25;;;6.35;100.00
11345;BME280;5727;42.600;23.028;2023-02-28T02:12:39;94089.59;;;6.46;100.00
11345;BME280;5727;42.600;23.028;2023-02-28T02:15:16;94095.28;;;6.48;100.00
11345;BME280;5727;42.600;23.028;2023-02-28T02:17:50;94094.06;;;6.32;100.00
11345;BME280;5727;42.600;23.028;2023-02-28T02:20:54;94092.31;;;6.27;100.00
11345;BME280;5727;42.600;23.028;2023-02-28T02:23:54;94094.72;;;6.24;100.00
11345;BME280;5727;42.600;23.028;2023-02-28T02:26:43;94098.94;;;6.20;100.00
11345;BME280;5727;42.600;23.028;2023-02-28T02:29:46;94087.09;;;6.27;100.00
11345;BME280;5727;42.600;23.028;2023-02-28T02:32:44;94094.63;;;6.29;100.00
11345;BME280;5727;42.600;23.028;2023-02-28T02:35:18;94100.00;;;6.19;100.00
11345;BME280;5727;42.600;23.028;2023-02-28T02:37:52;94097.88;;;6.34;100.00
11345;BME280;5727;42.600;23.028;2023-02-28T02:40:27;94099.63;;;6.39;100.00
11345;BME280;5727;42.600;23.028;2023-02-28T02:42:56;94096.63;;;6.45;100.00
11345;BME280;5727;42.600;23.028;2023-02-28T02:45:31;94100.00;;;6.46;100.00
11345;BME280;5727;42.600;23.028;2023-02-28T02:48:02;94096.91;;;6.58;100.00
11345;BME280;5727;42.600;23.028;2023-02-28T02:50:33;94102.31;;;6.61;100.00
11345;BME280;5727;42.600;23.028;2023-02-28T02:53:03;94098.06;;;6.65;100.00
11345;BME280;5727;42.600;23.028;2023-02-28T02:55:36;94105.41;;;6.63;100.00
11345;BME280;5727;42.600;23.028;2023-02-28T02:58:07;94098.06;;;6.65;100.00
11345;BME280;5727;42.600;23.028;2023-02-28T03:00:41;94106.53;;;6.71;100.00
11345;BME280;5727;42.600;23.028;2023-02-28T03:03:09;94098.66;;;6.76;100.00
11345;BME280;5727;42.600;23.028;2023-02-28T03:05:44;94104.34;;;6.78;100.00
11345;BME280;5727;42.600;23.028;2023-02-28T03:08:12;94107.69;;;6.78;100.00
11345;BME280;5727;42.600;23.028;2023-02-28T03:10:41;94109.13;;;6.84;100.00
11345;BME280;5727;42.600;23.028;2023-02-28T03:16:27;94113.59;;;6.84;100.00
11345;BME280;5727;42.600;23.028;2023-02-28T03:19:15;94112.34;;;6.81;100.00
11345;BME280;5727;42.600;23.028;2023-02-28T03:21:56;94121.41;;;6.84;100.00
11345;BME280;5727;42.600;23.028;2023-02-28T03:24:32;94116.19;;;6.84;100.00
11345;BME280;5727;42.600;23.028;2023-02-28T03:27:06;94128.16;;;6.85;100.00
11345;BME280;5727;42.600;23.028;2023-02-28T03:29:36;94125.34;;;6.81;100.00
11345;BME280;5727;42.600;23.028;2023-02-28T03:32:09;94129.00;;;6.80;100.00
11345;BME280;5727;42.600;23.028;2023-02-28T03:34:42;94130.75;;;6.85;100.00
11345;BME280;5727;42.600;23.028;2023-02-28T03:37:16;94129.50;;;6.82;100.00
11345;BME280;5727;42.600;23.028;2023-02-28T03:39:47;94135.38;;;6.88;100.00
11345;BME280;5727;42.600;23.028;2023-02-28T03:42:18;94135.66;;;6.86;100.00
11345;BME280;5727;42.600;23.028;2023-02-28T03:44:49;94139.91;;;6.82;100.00
11345;BME280;5727;42.600;23.028;2023-02-28T03:47:22;94139.91;;;6.82;100.00
11345;BME280;5727;42.600;23.028;2023-02-28T03:49:53;94139.41;;;6.80;100.00
11345;BME280;5727;42.600;23.028;2023-02-28T03:52:25;94131.34;;;6.82;100.00
11345;BME280;5727;42.600;23.028;2023-02-28T03:54:56;94134.69;;;6.82;100.00
11345;BME280;5727;42.600;23.028;2023-02-28T03:57:31;94135.66;;;6.86;100.00
11345;BME280;5727;42.600;23.028;2023-02-28T04:00:03;94142.91;;;6.89;100.00
11345;BME280;5727;42.600;23.028;2023-02-28T04:02:31;94139.03;;;6.87;100.00
11345;BME280;5727;42.600;23.028;2023-02-28T04:04:59;94136.44;;;6.87;100.00
11345;BME280;5727;42.600;23.028;2023-02-28T04:07:30;94143.19;;;6.88;100.00
11345;BME280;5727;42.600;23.028;2023-02-28T04:09:57;94139.34;;;6.85;100.00
11345;BME280;5727;42.600;23.028;2023-02-28T04:12:24;94126.31;;;6.85;100.00
11345;BME280;5727;42.600;23.028;2023-02-28T04:14:51;94126.78;;;6.87;100.00
11345;BME280;5727;42.600;23.028;2023-02-28T04:17:18;94133.34;;;6.85;100.00
11345;BME280;5727;42.600;23.028;2023-02-28T04:19:44;94137.22;;;6.87;100.00
11345;BME280;5727;42.600;23.028;2023-02-28T04:22:11;94137.78;;;6.84;100.00
11345;BME280;5727;42.600;23.028;2023-02-28T04:24:40;94143.00;;;6.57;100.00
11345;BME280;5727;42.600;23.028;2023-02-28T04:27:08;94135.00;;;6.40;100.00
11345;BME280;5727;42.600;23.028;2023-02-28T04:29:35;94143.50;;;6.00;100.00
11345;BME280;5727;42.600;23.028;2023-02-28T04:32:02;94138.84;;;5.83;100.00
11345;BME280;5727;42.600;23.028;2023-02-28T04:34:30;94144.69;;;5.75;100.00
11345;BME280;5727;42.600;23.028;2023-02-28T04:36:58;94147.75;;;5.45;100.00
11345;BME280;5727;42.600;23.028;2023-02-28T04:39:25;94147.72;;;5.26;100.00
11345;BME280;5727;42.600;23.028;2023-02-28T04:41:54;94149.63;;;5.21;100.00
11345;BME280;5727;42.600;23.028;2023-02-28T04:44:21;94156.72;;;5.15;100.00
11345;BME280;5727;42.600;23.028;2023-02-28T04:46:48;94160.03;;;5.02;100.00
11345;BME280;5727;42.600;23.028;2023-02-28T04:49:15;94166.78;;;5.03;100.00
11345;BME280;5727;42.600;23.028;2023-02-28T04:51:42;94165.00;;;4.99;100.00
11345;BME280;5727;42.600;23.028;2023-02-28T04:54:09;94157.81;;;4.91;100.00
11345;BME280;5727;42.600;23.028;2023-02-28T04:56:36;94168.91;;;4.78;100.00
11345;BME280;5727;42.600;23.028;2023-02-28T04:59:04;94161.88;;;4.78;100.00
11345;BME280;5727;42.600;23.028;2023-02-28T05:01:32;94171.91;;;4.85;100.00
11345;BME280;5727;42.600;23.028;2023-02-28T05:04:01;94170.59;;;4.87;100.00
11345;BME280;5727;42.600;23.028;2023-02-28T05:06:31;94176.16;;;4.99;100.00
11345;BME280;5727;42.600;23.028;2023-02-28T05:08:58;94178.59;;;4.91;100.00
11345;BME280;5727;42.600;23.028;2023-02-28T05:11:26;94176.78;;;4.91;100.00
11345;BME280;5727;42.600;23.028;2023-02-28T05:13:54;94177.00;;;4.95;100.00
11345;BME280;5727;42.600;23.028;2023-02-28T05:16:22;94174.06;;;5.01;100.00
11345;BME280;5727;42.600;23.028;2023-02-28T05:18:49;94175.75;;;5.11;100.00
11345;BME280;5727;42.600;23.028;2023-02-28T05:21:27;94179.75;;;5.22;100.00
11345;BME280;5727;42.600;23.028;2023-02-28T05:23:57;94172.25;;;5.39;100.00
11345;BME280;5727;42.600;23.028;2023-02-28T05:26:25;94176.44;;;5.53;100.00
11345;BME280;5727;42.600;23.028;2023-02-28T05:28:52;94176.81;;;5.47;100.00
11345;BME280;5727;42.600;23.028;2023-02-28T05:31:19;94180.13;;;5.52;100.00
11345;BME280;5727;42.600;23.028;2023-02-28T05:33:47;94190.84;;;5.27;100.00
11345;BME280;5727;42.600;23.028;2023-02-28T05:36:14;94195.34;;;5.40;100.00
11345;BME280;5727;42.600;23.028;2023-02-28T05:38:41;94193.53;;;5.59;100.00
11345;BME280;5727;42.600;23.028;2023-02-28T05:41:09;94201.09;;;5.75;100.00
11345;BME280;5727;42.600;23.028;2023-02-28T05:43:37;94204.63;;;5.84;100.00
11345;BME280;5727;42.600;23.028;2023-02-28T05:46:04;94214.31;;;5.97;100.00
11345;BME280;5727;42.600;23.028;2023-02-28T05:48:32;94208.03;;;5.98;100.00
11345;BME280;5727;42.600;23.028;2023-02-28T05:51:00;94211.75;;;6.10;100.00
11345;BME280;5727;42.600;23.028;2023-02-28T05:53:28;94210.03;;;6.19;100.00
11345;BME280;5727;42.600;23.028;2023-02-28T05:55:55;94211.22;;;6.27;100.00
11345;BME280;5727;42.600;23.028;2023-02-28T05:58:22;94215.28;;;6.33;100.00
11345;BME280;5727;42.600;23.028;2023-02-28T06:00:51;94213.16;;;6.35;100.00
11345;BME280;5727;42.600;23.028;2023-02-28T06:03:17;94209.22;;;6.37;100.00
11345;BME280;5727;42.600;23.028;2023-02-28T06:05:44;94214.63;;;6.41;100.00
11345;BME280;5727;42.600;23.028;2023-02-28T06:08:12;94213.56;;;6.42;100.00
11345;BME280;5727;42.600;23.028;2023-02-28T06:10:39;94214.94;;;6.53;100.00
11345;BME280;5727;42.600;23.028;2023-02-28T06:13:05;94216.84;;;6.61;100.00
11345;BME280;5727;42.600;23.028;2023-02-28T06:15:32;94215.16;;;6.70;100.00
11345;BME280;5727;42.600;23.028;2023-02-28T06:17:59;94216.13;;;6.74;100.00
11345;BME280;5727;42.600;23.028;2023-02-28T06:20:27;94222.50;;;6.82;100.00
11345;BME280;5727;42.600;23.028;2023-02-28T06:22:55;94218.44;;;6.89;100.00
11345;BME280;5727;42.600;23.028;2023-02-28T06:25:25;94220.56;;;6.87;100.00
11345;BME280;5727;42.600;23.028;2023-02-28T06:27:52;94228.44;;;6.96;100.00
11345;BME280;5727;42.600;23.028;2023-02-28T06:30:19;94231.66;;;7.06;100.00
11345;BME280;5727;42.600;23.028;2023-02-28T06:32:49;94234.63;;;7.13;100.00
11345;BME280;5727;42.600;23.028;2023-02-28T06:35:16;94232.69;;;7.05;100.00
11345;BME280;5727;42.600;23.028;2023-02-28T06:37:42;94233.97;;;7.08;100.00
11345;BME280;5727;42.600;23.028;2023-02-28T06:40:10;94241.19;;;7.11;100.00
11345;BME280;5727;42.600;23.028;2023-02-28T06:42:39;94235.00;;;7.20;100.00
11345;BME280;5727;42.600;23.028;2023-02-28T06:45:07;94236.53;;;7.35;100.00
11345;BME280;5727;42.600;23.028;2023-02-28T06:47:34;94238.66;;;7.47;100.00
11345;BME280;5727;42.600;23.028;2023-02-28T06:50:02;94239.78;;;7.54;100.00
11345;BME280;5727;42.600;23.028;2023-02-28T06:52:31;94244.03;;;7.64;100.00
11345;BME280;5727;42.600;23.028;2023-02-28T06:55:01;94244.88;;;7.73;100.00
11345;BME280;5727;42.600;23.028;2023-02-28T06:57:28;94244.38;;;7.71;100.00
11345;BME280;5727;42.600;23.028;2023-02-28T06:59:58;94242.53;;;7.35;100.00
11345;BME280;5727;42.600;23.028;2023-02-28T07:02:25;94245.03;;;7.27;100.00
11345;BME280;5727;42.600;23.028;2023-02-28T07:04:52;94249.22;;;7.14;100.00
11345;BME280;5727;42.600;23.028;2023-02-28T07:07:19;94246.50;;;7.06;100.00
11345;BME280;5727;42.600;23.028;2023-02-28T07:09:46;94251.63;;;6.84;100.00
11345;BME280;5727;42.600;23.028;2023-02-28T07:12:13;94253.75;;;6.82;100.00
11345;BME280;5727;42.600;23.028;2023-02-28T07:14:39;94266.47;;;6.83;100.00
11345;BME280;5727;42.600;23.028;2023-02-28T07:17:08;94254.47;;;6.69;100.00
11345;BME280;5727;42.600;23.028;2023-02-28T07:19:37;94251.59;;;6.70;100.00
11345;BME280;5727;42.600;23.028;2023-02-28T07:22:04;94251.19;;;6.63;100.00
11345;BME280;5727;42.600;23.028;2023-02-28T07:24:31;94249.25;;;6.55;100.00
11345;BME280;5727;42.600;23.028;2023-02-28T07:26:57;94246.53;;;6.46;100.00
11345;BME280;5727;42.600;23.028;2023-02-28T07:29:24;94252.09;;;6.40;100.00
11345;BME280;5727;42.600;23.028;2023-02-28T07:31:51;94250.81;;;6.56;100.00
11345;BME280;5727;42.600;23.028;2023-02-28T07:34:20;94247.72;;;6.54;100.00
11345;BME280;5727;42.600;23.028;2023-02-28T07:36:47;94258.16;;;6.68;100.00
11345;BME280;5727;42.600;23.028;2023-02-28T07:39:13;94266.06;;;6.76;100.00
11345;BME280;5727;42.600;23.028;2023-02-28T07:41:40;94259.81;;;6.77;100.00
11345;BME280;5727;42.600;23.028;2023-02-28T07:44:09;94257.31;;;6.86;100.00
11345;BME280;5727;42.600;23.028;2023-02-28T07:46:37;94253.44;;;6.70;100.00
11345;BME280;5727;42.600;23.028;2023-02-28T07:49:04;94255.94;;;6.88;100.00
11345;BME280;5727;42.600;23.028;2023-02-28T07:51:32;94255.88;;;6.93;100.00
11345;BME280;5727;42.600;23.028;2023-02-28T07:53:59;94256.44;;;7.04;100.00
11345;BME280;5727;42.600;23.028;2023-02-28T07:56:26;94256.81;;;6.97;100.00
11345;BME280;5727;42.600;23.028;2023-02-28T07:58:53;94264.53;;;6.89;100.00
11345;BME280;5727;42.600;23.028;2023-02-28T08:01:20;94264.53;;;6.89;100.00
11345;BME280;5727;42.600;23.028;2023-02-28T08:03:47;94262.72;;;6.89;100.00
11345;BME280;5727;42.600;23.028;2023-02-28T08:06:19;94265.88;;;6.86;100.00
11345;BME280;5727;42.600;23.028;2023-02-28T08:08:47;94268.97;;;6.88;100.00
11345;BME280;5727;42.600;23.028;2023-02-28T08:11:15;94267.03;;;6.80;100.00
11345;BME280;5727;42.600;23.028;2023-02-28T08:13:42;94263.25;;;6.73;100.00
11345;BME280;5727;42.600;23.028;2023-02-28T08:16:10;94259.41;;;6.70;100.00
11345;BME280;5727;42.600;23.028;2023-02-28T08:18:37;94265.66;;;6.69;100.00
11345;BME280;5727;42.600;23.028;2023-02-28T08:21:07;94258.44;;;6.66;100.00
11345;BME280;5727;42.600;23.028;2023-02-28T08:23:34;94259.97;;;6.67;100.00
11345;BME280;5727;42.600;23.028;2023-02-28T08:26:03;94254.97;;;6.84;100.00
11345;BME280;5727;42.600;23.028;2023-02-28T08:28:30;94257.03;;;7.14;100.00
11345;BME280;5727;42.600;23.028;2023-02-28T08:30:57;94257.09;;;7.36;100.00
11345;BME280;5727;42.600;23.028;2023-02-28T08:33:25;94254.88;;;7.43;100.00
11345;BME280;5727;42.600;23.028;2023-02-28T08:35:53;94256.59;;;7.48;100.00
11345;BME280;5727;42.600;23.028;2023-02-28T08:38:20;94263.91;;;7.60;100.00
11345;BME280;5727;42.600;23.028;2023-02-28T08:40:47;94266.38;;;7.78;100.00
11345;BME280;5727;42.600;23.028;2023-02-28T08:43:15;94255.69;;;8.02;100.00
11345;BME280;5727;42.600;23.028;2023-02-28T08:45:42;94261.66;;;8.16;100.00
11345;BME280;5727;42.600;23.028;2023-02-28T08:48:08;94260.09;;;8.15;100.00
11345;BME280;5727;42.600;23.028;2023-02-28T08:50:35;94251.19;;;8.29;100.00
11345;BME280;5727;42.600;23.028;2023-02-28T08:53:02;94253.09;;;8.68;100.00
11345;BME280;5727;42.600;23.028;2023-02-28T08:55:29;94243.66;;;8.89;100.00
11345;BME280;5727;42.600;23.028;2023-02-28T08:57:55;94251.63;;;8.84;100.00
11345;BME280;5727;42.600;23.028;2023-02-28T09:00:25;94245.16;;;8.51;100.00
11345;BME280;5727;42.600;23.028;2023-02-28T09:02:51;94244.00;;;8.66;100.00
11345;BME280;5727;42.600;23.028;2023-02-28T09:05:19;94237.84;;;8.92;100.00
11345;BME280;5727;42.600;23.028;2023-02-28T09:07:46;94242.34;;;9.09;100.00
11345;BME280;5727;42.600;23.028;2023-02-28T09:10:13;94239.56;;;9.05;100.00
11345;BME280;5727;42.600;23.028;2023-02-28T09:12:40;94243.75;;;9.15;100.00
11345;BME280;5727;42.600;23.028;2023-02-28T09:15:07;94242.59;;;9.30;100.00
11345;BME280;5727;42.600;23.028;2023-02-28T09:17:35;94249.50;;;9.26;100.00
11345;BME280;5727;42.600;23.028;2023-02-28T09:20:02;94249.28;;;9.13;100.00
11345;BME280;5727;42.600;23.028;2023-02-28T09:22:29;94245.19;;;9.30;100.00
11345;BME280;5727;42.600;23.028;2023-02-28T09:24:56;94238.13;;;9.47;100.00
11345;BME280;5727;42.600;23.028;2023-02-28T09:27:22;94239.56;;;9.62;100.00
11345;BME280;5727;42.600;23.028;2023-02-28T09:29:49;94240.97;;;9.68;100.00
11345;BME280;5727;42.600;23.028;2023-02-28T09:32:16;94244.31;;;9.60;100.00
11345;BME280;5727;42.600;23.028;2023-02-28T09:34:44;94245.25;;;9.72;100.00
11345;BME280;5727;42.600;23.028;2023-02-28T09:37:11;94242.38;;;9.91;100.00
11345;BME280;5727;42.600;23.028;2023-02-28T09:39:38;94247.59;;;9.91;100.00
11345;BME280;5727;42.600;23.028;2023-02-28T09:42:05;94240.50;;;9.83;100.00
11345;BME280;5727;42.600;23.028;2023-02-28T09:44:36;94237.72;;;9.88;100.00
11345;BME280;5727;42.600;23.028;2023-02-28T09:47:10;94237.59;;;10.19;100.00
11345;BME280;5727;42.600;23.028;2023-02-28T09:49:41;94238.66;;;10.26;100.00
11345;BME280;5727;42.600;23.028;2023-02-28T09:52:13;94240.78;;;10.58;100.00
11345;BME280;5727;42.600;23.028;2023-02-28T09:54:43;94237.16;;;10.80;100.00
11345;BME280;5727;42.600;23.028;2023-02-28T09:57:17;94229.03;;;10.81;100.00
11345;BME280;5727;42.600;23.028;2023-02-28T09:59:53;94225.69;;;11.01;100.00
11345;BME280;5727;42.600;23.028;2023-02-28T10:02:43;94226.16;;;11.03;100.00
11345;BME280;5727;42.600;23.028;2023-02-28T10:05:14;94220.09;;;11.12;100.00
11345;BME280;5727;42.600;23.028;2023-02-28T10:07:53;94222.44;;;11.34;100.00
11345;BME280;5727;42.600;23.028;2023-02-28T10:10:28;94209.47;;;11.37;100.00
11345;BME280;5727;42.600;23.028;2023-02-28T10:12:57;94218.47;;;11.28;100.00
11345;BME280;5727;42.600;23.028;2023-02-28T10:15:27;94225.44;;;11.24;100.00
11345;BME280;5727;42.600;23.028;2023-02-28T10:17:58;94219.81;;;11.34;100.00
11345;BME280;5727;42.600;23.028;2023-02-28T10:20:27;94215.13;;;11.48;100.00
11345;BME280;5727;42.600;23.028;2023-02-28T10:23:04;94213.22;;;11.28;100.00
11345;BME280;5727;42.600;23.028;2023-02-28T10:25:33;94213.50;;;11.05;100.00
11345;BME280;5727;42.600;23.028;2023-02-28T10:28:08;94212.09;;;11.08;100.00
11345;BME280;5727;42.600;23.028;2023-02-28T10:30:37;94200.97;;;11.11;100.00
11345;BME280;5727;42.600;23.028;2023-02-28T10:33:05;94202.88;;;11.02;100.00
11345;BME280;5727;42.600;23.028;2023-02-28T10:35:32;94198.78;;;10.84;100.00
11345;BME280;5727;42.600;23.028;2023-02-28T10:38:04;94205.38;;;10.90;100.00
11345;BME280;5727;42.600;23.028;2023-02-28T10:40:38;94208.31;;;10.88;100.00
11345;BME280;5727;42.600;23.028;2023-02-28T10:43:19;94195.13;;;11.05;100.00
11345;BME280;5727;42.600;23.028;2023-02-28T10:45:55;94195.91;;;11.06;100.00
11345;BME280;5727;42.600;23.028;2023-02-28T10:48:37;94183.66;;;11.19;100.00
11345;BME280;5727;42.600;23.028;2023-02-28T10:51:05;94183.56;;;11.36;100.00
11345;BME280;5727;42.600;23.028;2023-02-28T10:53:45;94183.97;;;11.46;100.00
11345;BME280;5727;42.600;23.028;2023-02-28T10:56:17;94178.50;;;11.51;100.00
11345;BME280;5727;42.600;23.028;2023-02-28T10:58:54;94164.91;;;11.58;100.00
11345;BME280;5727;42.600;23.028;2023-02-28T11:01:23;94167.66;;;11.61;100.00
11345;BME280;5727;42.600;23.028;2023-02-28T11:03:51;94165.09;;;11.94;100.00
11345;BME280;5727;42.600;23.028;2023-02-28T11:06:20;94156.66;;;12.21;100.00
11345;BME280;5727;42.600;23.028;2023-02-28T11:08:51;94148.72;;;12.42;100.00
11345;BME280;5727;42.600;23.028;2023-02-28T11:11:20;94149.09;;;12.64;100.00
11345;BME280;5727;42.600;23.028;2023-02-28T11:13:51;94152.16;;;12.66;100.00
11345;BME280;5727;42.600;23.028;2023-02-28T11:16:19;94153.00;;;12.46;100.00
11345;BME280;5727;42.600;23.028;2023-02-28T11:18:49;94146.13;;;12.54;100.00
11345;BME280;5727;42.600;23.028;2023-02-28T11:21:21;94144.91;;;12.51;100.00
11345;BME280;5727;42.600;23.028;2023-02-28T11:23:52;94145.03;;;12.67;100.00
11345;BME280;5727;42.600;23.028;2023-02-28T11:26:39;94145.72;;;12.88;100.00
11345;BME280;5727;42.600;23.028;2023-02-28T11:29:11;94144.28;;;13.03;100.00
11345;BME280;5727;42.600;23.028;2023-02-28T11:31:39;94136.38;;;13.03;100.00
11345;BME280;5727;42.600;23.028;2023-02-28T11:34:25;94130.59;;;13.33;100.00
11345;BME280;5727;42.600;23.028;2023-02-28T11:36:54;94136.91;;;13.56;100.00
11345;BME280;5727;42.600;23.028;2023-02-28T11:39:24;94138.19;;;13.62;100.00
11345;BME280;5727;42.600;23.028;2023-02-28T11:42:03;94137.13;;;13.51;100.00
11345;BME280;5727;42.600;23.028;2023-02-28T11:44:43;94140.97;;;13.54;100.00
11345;BME280;5727;42.600;23.028;2023-02-28T11:47:17;94132.34;;;13.81;100.00
11345;BME280;5727;42.600;23.028;2023-02-28T11:49:57;94135.16;;;13.88;100.00
11345;BME280;5727;42.600;23.028;2023-02-28T11:52:38;94129.91;;;13.88;100.00
11345;BME280;5727;42.600;23.028;2023-02-28T11:55:14;94128.56;;;13.94;100.00
11345;BME280;5727;42.600;23.028;2023-02-28T11:58:05;94127.22;;;13.72;100.00
11345;BME280;5727;42.600;23.028;2023-02-28T12:00:43;94128.84;;;13.77;100.00
11345;BME280;5727;42.600;23.028;2023-02-28T12:03:22;94117.66;;;13.68;100.00
11345;BME280;5727;42.600;23.028;2023-02-28T12:06:01;94126.91;;;13.62;100.00
11345;BME280;5727;42.600;23.028;2023-02-28T12:08:42;94115.34;;;13.39;100.00
11345;BME280;5727;42.600;23.028;2023-02-28T12:11:17;94116.44;;;13.38;100.00
11345;BME280;5727;42.600;23.028;2023-02-28T12:13:50;94109.50;;;13.45;100.00
11345;BME280;5727;42.600;23.028;2023-02-28T12:16:40;94110.13;;;13.54;100.00
11345;BME280;5727;42.600;23.028;2023-02-28T12:19:19;94113.41;;;13.63;100.00
11345;BME280;5727;42.600;23.028;2023-02-28T12:22:03;94111.28;;;13.81;100.00
11345;BME280;5727;42.600;23.028;2023-02-28T12:24:47;94103.41;;;13.69;100.00
11345;BME280;5727;42.600;23.028;2023-02-28T12:27:21;94105.19;;;13.65;100.00
11345;BME280;5727;42.600;23.028;2023-02-28T12:29:51;94096.47;;;13.76;100.00
11345;BME280;5727;42.600;23.028;2023-02-28T12:32:23;94094.75;;;13.96;100.00
11345;BME280;5727;42.600;23.028;2023-02-28T12:34:57;94087.47;;;14.21;100.00
11345;BME280;5727;42.600;23.028;2023-02-28T12:37:30;94088.72;;;14.39;100.00
11345;BME280;5727;42.600;23.028;2023-02-28T12:40:01;94089.56;;;14.58;100.00
11345;BME280;5727;42.600;23.028;2023-02-28T12:42:34;94094.59;;;14.79;100.00
11345;BME280;5727;42.600;23.028;2023-02-28T12:45:09;94092.78;;;14.99;100.00
11345;BME280;5727;42.600;23.028;2023-02-28T12:47:38;94088.97;;;15.31;100.00
11345;BME280;5727;42.600;23.028;2023-02-28T12:50:09;94093.47;;;15.30;100.00
11345;BME280;5727;42.600;23.028;2023-02-28T12:52:55;94083.41;;;15.36;100.00
11345;BME280;5727;42.600;23.028;2023-02-28T12:55:31;94080.63;;;15.44;100.00
11345;BME280;5727;42.600;23.028;2023-02-28T12:58:10;94073.38;;;15.41;100.00
11345;BME280;5727;42.600;23.028;2023-02-28T13:03:49;94068.06;;;15.07;100.00
11345;BME280;5727;42.600;23.028;2023-02-28T13:09:13;94070.75;;;14.60;100.00
11345;BME280;5727;42.600;23.028;2023-02-28T13:11:43;94065.19;;;14.61;100.00
11345;BME280;5727;42.600;23.028;2023-02-28T13:14:24;94067.44;;;14.79;100.00
11345;BME280;5727;42.600;23.028;2023-02-28T13:17:01;94056.53;;;14.96;100.00
11345;BME280;5727;42.600;23.028;2023-02-28T13:19:31;94051.41;;;15.03;100.00
11345;BME280;5727;42.600;23.028;2023-02-28T13:21:59;94048.38;;;15.39;100.00
11345;BME280;5727;42.600;23.028;2023-02-28T13:24:47;94060.53;;;15.59;100.00